createdAt,value
2018-09-15T00:02:13.631Z,1.40
2018-09-15T00:07:36.308Z,2.20
2018-09-15T00:12:59.342Z,1.53
2018-09-15T00:18:22.787Z,1.23
2018-09-15T00:23:45.063Z,1.43
2018-09-15T00:29:07.173Z,1.53
2018-09-15T00:34:31.249Z,1.50
2018-09-15T00:39:53.375Z,1.60
2018-09-15T00:45:15.240Z,1.50
2018-09-15T00:50:37.329Z,1.50
2018-09-15T00:55:59.145Z,1.70
2018-09-15T01:01:21.390Z,1.70
2018-09-15T01:06:43.774Z,2.10
2018-09-15T01:12:05.645Z,1.77
2018-09-15T01:17:27.853Z,2.00
2018-09-15T01:22:49.662Z,2.10
2018-09-15T01:28:11.986Z,2.20
2018-09-15T01:33:33.870Z,2.00
2018-09-15T01:38:56.130Z,1.90
2018-09-15T01:44:17.941Z,2.17
2018-09-15T01:49:40.194Z,2.40
2018-09-15T01:55:02.542Z,1.53
2018-09-15T02:00:24.355Z,1.97
2018-09-15T02:05:46.518Z,1.70
2018-09-15T02:11:08.466Z,1.87
2018-09-15T02:16:30.646Z,2.10
2018-09-15T02:21:52.656Z,1.83
2018-09-15T02:27:14.698Z,1.80
2018-09-15T02:32:36.486Z,2.20
2018-09-15T02:37:58.609Z,1.90
2018-09-15T02:43:20.382Z,1.47
2018-09-15T02:48:42.509Z,2.60
2018-09-15T02:54:04.482Z,3.47
2018-09-15T02:59:26.572Z,3.10
2018-09-15T03:04:48.377Z,2.60
2018-09-15T03:10:10.463Z,2.13
2018-09-15T03:15:32.314Z,2.80
2018-09-15T03:20:54.389Z,2.43
2018-09-15T03:26:16.222Z,3.07
2018-09-15T03:31:38.234Z,2.40
2018-09-15T03:37:00.025Z,2.47
2018-09-15T03:42:22.350Z,2.97
2018-09-15T03:47:44.134Z,2.17
2018-09-15T03:53:06.302Z,2.70
2018-09-15T03:58:28.147Z,2.37
2018-09-15T04:03:50.332Z,2.40
2018-09-15T04:09:12.955Z,2.10
2018-09-15T04:14:35.450Z,3.00
2018-09-15T04:19:57.514Z,3.03
2018-09-15T04:25:19.797Z,2.30
2018-09-15T04:30:41.981Z,2.13
2018-09-15T04:36:03.994Z,2.00
2018-09-15T04:41:25.610Z,3.30
2018-09-15T04:46:48.086Z,3.00
2018-09-15T04:52:10.478Z,2.67
2018-09-15T04:57:33.048Z,3.03
2018-09-15T05:02:55.304Z,2.60
2018-09-15T05:08:17.462Z,2.77
2018-09-15T05:13:39.332Z,2.50
2018-09-15T05:19:01.445Z,2.30
2018-09-15T05:24:23.258Z,2.70
2018-09-15T05:29:45.266Z,2.50
2018-09-15T05:35:07.130Z,3.70
2018-09-15T05:40:29.229Z,2.67
2018-09-15T05:45:51.018Z,3.70
2018-09-15T05:51:13.254Z,3.30
2018-09-15T05:56:35.572Z,3.60
2018-09-15T06:01:57.743Z,3.33
2018-09-15T06:07:19.638Z,3.53
2018-09-15T06:12:41.426Z,3.47
2018-09-15T06:18:03.710Z,3.17
2018-09-15T06:23:26.054Z,3.60
2018-09-15T06:28:48.405Z,3.40
2018-09-15T06:34:10.330Z,3.50
2018-09-15T06:39:33.307Z,3.27
2018-09-15T06:44:55.507Z,3.57
2018-09-15T06:50:17.285Z,5.03
2018-09-15T06:55:40.199Z,4.40
2018-09-15T07:01:02.386Z,3.33
2018-09-15T07:06:24.293Z,2.77
2018-09-15T07:11:46.251Z,2.30
2018-09-15T07:17:08.194Z,3.20
2018-09-15T07:22:33.318Z,2.93
2018-09-15T07:27:55.742Z,3.17
2018-09-15T07:33:19.806Z,3.43
2018-09-15T07:38:42.214Z,3.17
2018-09-15T07:44:04.363Z,3.10
2018-09-15T07:49:26.154Z,3.00
2018-09-15T07:54:49.128Z,2.70
2018-09-15T08:00:11.294Z,2.43
2018-09-15T08:05:33.677Z,2.50
2018-09-15T08:10:55.625Z,1.87
2018-09-15T08:16:17.807Z,1.53
2018-09-15T08:21:39.609Z,1.80
2018-09-15T08:27:01.957Z,1.50
2018-09-15T08:32:23.943Z,1.37
2018-09-15T08:37:46.100Z,1.30
2018-09-15T08:43:07.945Z,1.20
2018-09-15T08:48:30.093Z,1.10
2018-09-15T08:53:51.867Z,1.00
2018-09-15T08:59:14.012Z,1.20
2018-09-15T09:04:35.958Z,1.13
2018-09-15T09:09:58.044Z,0.80
2018-09-15T09:15:20.382Z,0.70
2018-09-15T09:20:42.270Z,1.03
2018-09-15T09:26:04.611Z,1.10
2018-09-15T09:31:26.409Z,0.87
2018-09-15T09:36:49.303Z,0.77
2018-09-15T09:42:11.710Z,0.83
2018-09-15T09:47:33.838Z,0.60
2018-09-15T09:52:55.616Z,0.70
2018-09-15T09:58:17.841Z,0.70
2018-09-15T10:03:39.594Z,0.80
2018-09-15T10:09:01.798Z,0.90
2018-09-15T10:14:24.237Z,0.73
2018-09-15T10:19:46.218Z,0.80
2018-09-15T10:25:09.289Z,0.70
2018-09-15T10:30:31.218Z,0.70
2018-09-15T10:35:53.027Z,0.60
2018-09-15T10:41:15.227Z,0.60
2018-09-15T10:46:37.044Z,0.80
2018-09-15T10:51:59.135Z,0.60
2018-09-15T10:57:22.205Z,0.60
2018-09-15T11:02:44.402Z,0.73
2018-09-15T11:08:06.313Z,0.70
2018-09-15T11:13:28.529Z,0.70
2018-09-15T11:18:50.405Z,0.67
2018-09-15T11:24:12.478Z,0.93
2018-09-15T11:29:34.179Z,0.90
2018-09-15T11:34:56.397Z,0.70
2018-09-15T11:40:18.829Z,0.70
2018-09-15T11:45:40.853Z,1.00
2018-09-15T11:51:02.645Z,0.70
2018-09-15T11:56:24.728Z,1.00
2018-09-15T12:01:47.022Z,0.77
2018-09-15T12:07:08.990Z,0.73
2018-09-15T12:12:31.135Z,1.10
2018-09-15T12:17:55.703Z,0.90
2018-09-15T12:23:18.034Z,0.90
2018-09-15T12:28:40.104Z,0.80
2018-09-15T12:34:04.986Z,0.87
2018-09-15T12:39:27.322Z,0.93
2018-09-15T12:44:49.608Z,0.90
2018-09-15T12:50:11.825Z,0.90
2018-09-15T12:55:33.713Z,0.87
2018-09-15T13:00:55.838Z,0.80
2018-09-15T13:06:17.564Z,1.20
2018-09-15T13:11:39.853Z,0.90
2018-09-15T13:17:01.621Z,1.00
2018-09-15T13:23:26.560Z,1.40
2018-09-15T13:28:48.570Z,1.00
2018-09-15T13:34:10.598Z,1.00
2018-09-15T13:39:32.438Z,1.10
2018-09-15T13:44:54.645Z,0.77
2018-09-15T13:50:16.574Z,0.90
2018-09-15T13:55:38.711Z,0.80
2018-09-15T14:01:01.215Z,0.90
2018-09-15T14:06:24.163Z,0.83
2018-09-15T14:11:45.931Z,0.90
2018-09-15T14:17:08.164Z,1.00
2018-09-15T14:22:30.146Z,1.00
2018-09-15T14:27:52.162Z,0.80
2018-09-15T14:33:14.488Z,1.10
2018-09-15T14:38:36.529Z,0.80
2018-09-15T14:43:58.590Z,1.00
2018-09-15T14:49:20.362Z,0.80
2018-09-15T14:54:42.579Z,0.80
2018-09-15T15:00:04.727Z,0.70
2018-09-15T15:05:27.511Z,0.90
2018-09-15T15:10:49.599Z,0.73
2018-09-15T15:16:11.465Z,0.70
2018-09-15T15:21:33.405Z,0.70
2018-09-15T15:26:55.290Z,0.80
2018-09-15T15:32:17.677Z,0.60
2018-09-15T15:37:39.506Z,0.70
2018-09-15T15:43:01.644Z,0.60
2018-09-15T15:48:23.391Z,0.77
2018-09-15T15:53:45.502Z,0.57
2018-09-15T15:59:07.528Z,0.90
2018-09-15T16:04:29.536Z,0.73
2018-09-15T16:09:51.412Z,0.70
2018-09-15T16:30:28.390Z,0.90
2018-09-15T16:35:50.825Z,1.00
2018-09-15T16:41:13.572Z,0.60
2018-09-15T16:46:36.268Z,0.60
2018-09-15T16:51:57.914Z,0.80
2018-09-15T16:57:20.188Z,0.70
2018-09-15T17:02:43.673Z,0.70
2018-09-15T17:08:06.024Z,0.63
2018-09-15T17:13:28.924Z,0.67
2018-09-15T17:18:51.124Z,0.80
2018-09-15T17:24:13.151Z,0.80
2018-09-15T17:29:35.408Z,0.70
2018-09-15T17:34:57.369Z,0.80
2018-09-15T17:40:19.530Z,0.70
2018-09-15T17:45:41.365Z,0.63
2018-09-15T17:51:03.318Z,0.60
2018-09-15T17:56:25.383Z,0.50
2018-09-15T18:01:47.411Z,0.80
2018-09-15T18:07:09.307Z,0.70
2018-09-15T18:12:31.531Z,0.67
2018-09-15T18:17:53.367Z,0.90
2018-09-15T18:23:15.415Z,0.90
2018-09-15T18:28:37.226Z,0.60
2018-09-15T18:33:59.430Z,0.67
2018-09-15T18:39:21.255Z,0.67
2018-09-15T18:44:43.607Z,0.80
2018-09-15T18:50:05.886Z,0.73
2018-09-15T18:55:27.630Z,0.90
2018-09-15T19:00:49.751Z,0.70
2018-09-15T19:06:11.599Z,0.67
2018-09-15T19:11:33.723Z,0.80
2018-09-15T19:16:55.607Z,1.00
2018-09-15T19:22:17.717Z,1.13
2018-09-15T19:27:39.509Z,1.23
2018-09-15T19:33:01.577Z,1.27
2018-09-15T19:38:23.354Z,1.17
2018-09-15T19:43:45.559Z,1.00
2018-09-15T19:49:07.909Z,1.97
2018-09-15T19:54:29.921Z,1.80
2018-09-15T19:59:52.101Z,2.00
2018-09-15T20:05:14.334Z,2.10
2018-09-15T20:10:36.352Z,1.77
2018-09-15T20:15:56.161Z,1.60
2018-09-15T20:21:16.242Z,1.43
2018-09-15T20:26:38.371Z,1.30
2018-09-15T20:32:00.250Z,1.27
2018-09-15T20:37:22.240Z,1.50
2018-09-15T20:42:43.934Z,1.57
2018-09-15T20:48:06.089Z,1.33
2018-09-15T20:53:28.050Z,1.37
2018-09-15T20:58:50.101Z,1.57
2018-09-15T21:04:11.846Z,1.40
2018-09-15T21:09:34.018Z,1.30
2018-09-15T21:14:55.725Z,1.33
2018-09-15T21:20:17.904Z,1.30
2018-09-15T21:25:39.824Z,1.27
2018-09-15T21:31:02.089Z,1.40
2018-09-15T21:36:24.045Z,1.30
2018-09-15T21:41:46.275Z,1.30
2018-09-15T21:47:08.167Z,1.10
2018-09-15T21:52:30.335Z,1.40
2018-09-15T21:57:52.183Z,1.03
2018-09-15T22:03:14.382Z,1.57
2018-09-15T22:08:36.493Z,1.30
2018-09-15T22:13:58.373Z,1.07
2018-09-15T22:19:20.173Z,1.60
2018-09-15T22:24:42.263Z,1.00
2018-09-15T22:30:04.571Z,1.50
2018-09-15T22:35:26.719Z,1.33
2018-09-15T22:40:49.676Z,1.30
2018-09-15T22:46:11.641Z,1.20
2018-09-15T22:51:33.631Z,1.60
2018-09-15T22:56:55.890Z,1.10
2018-09-15T23:02:18.298Z,1.53
2018-09-15T23:07:43.084Z,2.20
2018-09-15T23:13:05.126Z,2.63
2018-09-15T23:18:26.979Z,2.13
2018-09-15T23:23:49.014Z,1.90
2018-09-15T23:29:10.886Z,1.67
2018-09-15T23:34:32.985Z,1.77
2018-09-15T23:39:54.761Z,1.70
2018-09-15T23:45:17.638Z,1.47
2018-09-15T23:50:39.626Z,1.57
2018-09-15T23:56:01.515Z,1.77
